Time,TemperatureF,DewpointF,PressureIn,WindDirection,WindDirectionDegrees,WindSpeedMPH,WindSpeedGustMPH,Humidity,HourlyPrecipIn,Conditions,Clouds,dailyrainin,SoftwareType,DateUTC
2013-06-12 00:03:00,62.0,60.0,29.98,East,90,0.0,0.0,93,0.00,,,0.22,,2013-06-12 04:03:00,
2013-06-12 00:13:00,62.0,60.0,29.98,East,90,0.0,0.0,93,0.00,,,0.22,,2013-06-12 04:13:00,
2013-06-12 00:23:00,62.0,60.0,29.98,East,90,0.0,0.0,93,0.00,,,0.22,,2013-06-12 04:23:00,
2013-06-12 00:34:00,62.0,60.0,29.99,East,90,0.0,0.0,94,0.00,,,0.22,,2013-06-12 04:34:00,
2013-06-12 00:42:00,62.0,60.0,29.99,East,90,0.0,0.0,94,0.00,,,0.22,,2013-06-12 04:42:00,
2013-06-12 00:53:00,62.0,60.0,29.99,East,90,0.0,0.0,94,0.00,,,0.22,,2013-06-12 04:53:00,
2013-06-12 01:03:00,61.0,60.0,29.99,East,90,0.0,0.0,95,0.00,,,0.22,,2013-06-12 05:03:00,
2013-06-12 01:12:00,61.0,60.0,29.99,East,90,0.0,0.0,95,0.00,,,0.22,,2013-06-12 05:12:00,
2013-06-12 01:22:00,61.0,60.0,29.99,East,90,0.0,0.0,95,0.00,,,0.22,,2013-06-12 05:22:00,
2013-06-12 01:32:00,60.0,59.0,29.98,East,90,0.0,2.0,96,0.00,,,0.22,,2013-06-12 05:32:00,
2013-06-12 01:42:00,60.0,59.0,29.98,East,90,0.0,2.0,96,0.00,,,0.22,,2013-06-12 05:42:00,
2013-06-12 01:52:00,60.0,59.0,29.98,East,90,0.0,2.0,96,0.00,,,0.22,,2013-06-12 05:52:00,
2013-06-12 02:02:00,59.0,58.0,29.98,East,90,0.0,0.0,97,0.00,,,0.22,,2013-06-12 06:02:00,
2013-06-12 02:12:00,59.0,58.0,29.98,East,90,0.0,0.0,97,0.00,,,0.22,,2013-06-12 06:12:00,
2013-06-12 02:22:00,59.0,58.0,29.98,East,90,0.0,0.0,97,0.00,,,0.22,,2013-06-12 06:22:00,
2013-06-12 02:32:00,60.0,59.0,29.98,East,90,0.0,1.0,98,0.00,,,0.15,,2013-06-12 06:32:00,
2013-06-12 02:42:00,60.0,59.0,29.98,East,90,0.0,1.0,98,0.00,,,0.15,,2013-06-12 06:42:00,
2013-06-12 02:52:00,60.0,59.0,29.98,East,90,0.0,1.0,98,0.00,,,0.15,,2013-06-12 06:52:00,
2013-06-12 03:02:00,60.0,59.0,29.99,North,0,1.0,2.0,98,0.00,,,0.07,,2013-06-12 07:02:00,
2013-06-12 03:12:00,60.0,59.0,29.99,North,0,1.0,2.0,98,0.00,,,0.07,,2013-06-12 07:12:00,
2013-06-12 03:22:00,60.0,59.0,29.99,North,0,1.0,2.0,98,0.00,,,0.07,,2013-06-12 07:22:00,
2013-06-12 03:33:00,61.0,60.0,29.98,SW,225,0.0,1.0,95,0.00,,,0.02,,2013-06-12 07:33:00,
2013-06-12 03:43:00,61.0,60.0,29.98,SW,225,0.0,1.0,95,0.00,,,0.02,,2013-06-12 07:43:00,
2013-06-12 03:53:00,61.0,60.0,29.98,SW,225,0.0,1.0,95,0.00,,,0.02,,2013-06-12 07:53:00,
2013-06-12 04:02:00,62.0,61.0,29.99,North,0,0.0,1.0,95,0.00,,,0.00,,2013-06-12 08:02:00,
2013-06-12 04:12:00,62.0,61.0,29.99,North,0,0.0,1.0,95,0.00,,,0.00,,2013-06-12 08:12:00,
2013-06-12 04:22:00,62.0,61.0,29.99,North,0,0.0,1.0,95,0.00,,,0.00,,2013-06-12 08:22:00,
2013-06-12 04:33:00,61.0,60.0,29.99,North,0,0.0,0.0,96,0.00,,,0.00,,2013-06-12 08:33:00,
2013-06-12 04:43:00,61.0,60.0,29.99,North,0,0.0,0.0,96,0.00,,,0.00,,2013-06-12 08:43:00,
2013-06-12 04:53:00,61.0,60.0,29.99,North,0,0.0,0.0,96,0.00,,,0.00,,2013-06-12 08:53:00,
2013-06-12 05:01:00,61.0,60.0,29.99,North,0,0.0,0.0,96,0.00,,,0.00,,2013-06-12 09:01:00,
2013-06-12 05:11:00,62.0,61.0,29.99,North,0,0.0,1.0,95,0.00,,,0.00,,2013-06-12 09:11:00,
2013-06-12 05:22:00,62.0,61.0,29.99,North,0,0.0,1.0,95,0.00,,,0.00,,2013-06-12 09:22:00,
2013-06-12 05:33:00,62.0,60.0,30.00,ESE,113,1.0,2.0,94,0.00,,,0.00,,2013-06-12 09:33:00,
2013-06-12 05:42:00,62.0,60.0,30.00,ESE,113,1.0,2.0,94,0.00,,,0.00,,2013-06-12 09:42:00,
2013-06-12 05:53:00,62.0,60.0,30.00,ESE,113,1.0,2.0,94,0.00,,,0.00,,2013-06-12 09:53:00,
2013-06-12 06:02:00,61.0,59.0,29.99,NNE,23,0.0,2.0,94,0.00,,,0.00,,2013-06-12 10:02:00,
2013-06-12 06:11:00,61.0,59.0,29.99,NNE,23,0.0,2.0,94,0.00,,,0.00,,2013-06-12 10:11:00,
2013-06-12 06:23:00,61.0,59.0,29.99,NNE,23,0.0,2.0,94,0.00,,,0.00,,2013-06-12 10:23:00,
2013-06-12 06:33:00,60.0,59.0,29.99,NNE,23,0.0,0.0,96,0.00,,,0.00,,2013-06-12 10:33:00,
2013-06-12 06:43:00,60.0,59.0,29.99,NNE,23,0.0,0.0,96,0.00,,,0.00,,2013-06-12 10:43:00,
2013-06-12 06:53:00,60.0,59.0,29.99,NNE,23,0.0,0.0,96,0.00,,,0.00,,2013-06-12 10:53:00,
2013-06-12 07:02:00,61.0,60.0,29.99,NNE,23,0.0,1.0,97,0.00,,,0.00,,2013-06-12 11:02:00,
2013-06-12 07:12:00,61.0,60.0,29.99,NNE,23,0.0,1.0,97,0.00,,,0.00,,2013-06-12 11:12:00,
2013-06-12 07:24:00,61.0,60.0,29.99,NNE,23,0.0,1.0,97,0.00,,,0.00,,2013-06-12 11:24:00,
2013-06-12 07:33:00,62.0,61.0,29.99,North,0,0.0,2.0,95,0.00,,,0.00,,2013-06-12 11:33:00,
2013-06-12 07:43:00,62.0,61.0,29.99,North,0,0.0,2.0,95,0.00,,,0.00,,2013-06-12 11:43:00,
2013-06-12 07:53:00,62.0,61.0,29.99,North,0,0.0,2.0,95,0.00,,,0.00,,2013-06-12 11:53:00,
2013-06-12 08:02:00,65.0,63.0,30.00,ENE,68,0.0,3.0,92,0.00,,,0.00,,2013-06-12 12:02:00,
2013-06-12 08:11:00,65.0,63.0,30.00,ENE,68,0.0,3.0,92,0.00,,,0.00,,2013-06-12 12:11:00,
2013-06-12 08:23:00,65.0,63.0,30.00,ENE,68,0.0,3.0,92,0.00,,,0.00,,2013-06-12 12:23:00,
2013-06-12 08:33:00,67.0,64.0,30.00,NE,45,2.0,7.0,89,0.00,,,0.00,,2013-06-12 12:33:00,
2013-06-12 08:42:00,67.0,64.0,30.00,NE,45,2.0,7.0,89,0.00,,,0.00,,2013-06-12 12:42:00,
2013-06-12 08:53:00,67.0,64.0,30.00,NE,45,2.0,7.0,89,0.00,,,0.00,,2013-06-12 12:53:00,
2013-06-12 09:01:00,67.0,64.0,30.00,NE,45,2.0,7.0,89,0.00,,,0.00,,2013-06-12 13:01:00,
2013-06-12 09:10:00,71.0,66.0,30.00,NE,45,2.0,3.0,83,0.00,,,0.00,,2013-06-12 13:10:00,
2013-06-12 09:12:00,69.0,65.0,29.99,ENE,68,1.0,5.0,87,0.00,,,0.00,,2013-06-12 13:12:00,
2013-06-12 09:22:00,69.0,65.0,29.99,ENE,68,1.0,5.0,87,0.00,,,0.00,,2013-06-12 13:22:00,
2013-06-12 09:33:00,71.0,66.0,30.00,NE,45,2.0,3.0,83,0.00,,,0.00,,2013-06-12 13:33:00,
2013-06-12 09:40:00,68.0,65.0,30.00,North,0,0.0,1.0,89,0.00,,,0.00,,2013-06-12 13:40:00,
2013-06-12 09:43:00,71.0,66.0,30.00,NE,45,2.0,3.0,83,0.00,,,0.00,,2013-06-12 13:43:00,
2013-06-12 09:53:00,71.0,66.0,30.00,NE,45,2.0,3.0,83,0.00,,,0.00,,2013-06-12 13:53:00,
2013-06-12 10:02:00,71.0,66.0,30.00,NE,45,2.0,3.0,83,0.00,,,0.00,,2013-06-12 14:02:00,
2013-06-12 10:33:00,68.0,65.0,30.00,North,0,0.0,1.0,89,0.00,,,0.00,,2013-06-12 14:33:00,
2013-06-12 11:01:00,69.0,66.0,29.98,ENE,68,0.0,5.0,90,0.00,,,0.00,,2013-06-12 15:01:00,
2013-06-12 11:12:00,69.0,66.0,29.98,ENE,68,0.0,5.0,90,0.00,,,0.00,,2013-06-12 15:12:00,
2013-06-12 11:23:00,69.0,66.0,29.98,ENE,68,0.0,5.0,90,0.00,,,0.00,,2013-06-12 15:23:00,
2013-06-12 11:33:00,76.0,70.0,29.98,North,0,2.0,6.0,81,0.00,,,0.00,,2013-06-12 15:33:00,
2013-06-12 11:43:00,76.0,70.0,29.98,North,0,2.0,6.0,81,0.00,,,0.00,,2013-06-12 15:43:00,
2013-06-12 11:52:00,76.0,70.0,29.98,North,0,2.0,6.0,81,0.00,,,0.00,,2013-06-12 15:52:00,
2013-06-12 12:02:00,77.0,69.0,29.98,South,180,1.0,8.0,77,0.00,,,0.00,,2013-06-12 16:02:00,
2013-06-12 12:12:00,77.0,69.0,29.98,South,180,1.0,8.0,77,0.00,,,0.00,,2013-06-12 16:12:00,
2013-06-12 12:22:00,77.0,69.0,29.98,South,180,1.0,8.0,77,0.00,,,0.00,,2013-06-12 16:22:00,
2013-06-12 12:33:00,80.0,71.0,29.97,SE,135,3.0,5.0,75,0.00,,,0.00,,2013-06-12 16:33:00,
2013-06-12 12:40:00,81.0,70.0,29.97,NE,45,2.0,12.0,69,0.00,,,0.00,,2013-06-12 16:40:00,
2013-06-12 12:43:00,80.0,71.0,29.97,SE,135,3.0,5.0,75,0.00,,,0.00,,2013-06-12 16:43:00,
2013-06-12 12:53:00,80.0,71.0,29.97,SE,135,3.0,5.0,75,0.00,,,0.00,,2013-06-12 16:53:00,
2013-06-12 13:01:00,81.0,70.0,29.97,NE,45,2.0,12.0,69,0.00,,,0.00,,2013-06-12 17:01:00,
2013-06-12 13:12:00,81.0,70.0,29.97,NE,45,2.0,12.0,69,0.00,,,0.00,,2013-06-12 17:12:00,
2013-06-12 13:23:00,81.0,70.0,29.97,NE,45,2.0,12.0,69,0.00,,,0.00,,2013-06-12 17:23:00,
2013-06-12 13:33:00,81.0,70.0,29.97,NE,45,2.0,12.0,69,0.00,,,0.00,,2013-06-12 17:33:00,
2013-06-12 14:02:00,82.0,69.0,29.96,NE,45,5.0,13.0,66,0.00,,,0.00,,2013-06-12 18:02:00,
2013-06-12 14:12:00,82.0,69.0,29.96,NE,45,5.0,13.0,66,0.00,,,0.00,,2013-06-12 18:12:00,
2013-06-12 14:22:00,82.0,69.0,29.96,NE,45,5.0,13.0,66,0.00,,,0.00,,2013-06-12 18:22:00,
2013-06-12 14:33:00,83.0,71.0,29.95,WSW,248,2.0,12.0,68,0.00,,,0.00,,2013-06-12 18:33:00,
2013-06-12 14:43:00,83.0,71.0,29.95,WSW,248,2.0,12.0,68,0.00,,,0.00,,2013-06-12 18:43:00,
2013-06-12 14:53:00,83.0,71.0,29.95,WSW,248,2.0,12.0,68,0.00,,,0.00,,2013-06-12 18:53:00,
2013-06-12 15:01:00,82.0,69.0,29.94,South,180,2.0,8.0,64,0.00,,,0.00,,2013-06-12 19:01:00,
2013-06-12 15:11:00,82.0,69.0,29.94,South,180,2.0,8.0,64,0.00,,,0.00,,2013-06-12 19:11:00,
2013-06-12 15:22:00,82.0,69.0,29.94,South,180,2.0,8.0,64,0.00,,,0.00,,2013-06-12 19:22:00,
2013-06-12 15:32:00,84.0,70.0,29.93,SE,135,1.0,6.0,64,0.00,,,0.00,,2013-06-12 19:32:00,
2013-06-12 15:42:00,84.0,70.0,29.93,SE,135,1.0,6.0,64,0.00,,,0.00,,2013-06-12 19:42:00,
2013-06-12 15:52:00,84.0,70.0,29.93,SE,135,1.0,6.0,64,0.00,,,0.00,,2013-06-12 19:52:00,
2013-06-12 16:01:00,82.0,70.0,29.94,NE,45,5.0,7.0,67,0.00,,,0.00,,2013-06-12 20:01:00,
2013-06-12 16:11:00,82.0,70.0,29.94,NE,45,5.0,7.0,67,0.00,,,0.00,,2013-06-12 20:11:00,
2013-06-12 16:22:00,82.0,70.0,29.94,NE,45,5.0,7.0,67,0.00,,,0.00,,2013-06-12 20:22:00,
2013-06-12 16:32:00,83.0,68.0,29.93,South,180,1.0,5.0,61,0.00,,,0.00,,2013-06-12 20:32:00,
2013-06-12 16:42:00,83.0,68.0,29.93,South,180,1.0,5.0,61,0.00,,,0.00,,2013-06-12 20:42:00,
2013-06-12 16:54:00,83.0,68.0,29.93,South,180,1.0,5.0,61,0.00,,,0.00,,2013-06-12 20:54:00,
2013-06-12 17:01:00,84.0,69.0,29.93,NNE,23,1.0,3.0,61,0.00,,,0.00,,2013-06-12 21:01:00,
2013-06-12 17:12:00,84.0,69.0,29.93,NNE,23,1.0,3.0,61,0.00,,,0.00,,2013-06-12 21:12:00,
2013-06-12 17:22:00,84.0,69.0,29.93,NNE,23,1.0,3.0,61,0.00,,,0.00,,2013-06-12 21:22:00,
2013-06-12 17:33:00,84.0,70.0,29.92,NNW,338,0.0,7.0,63,0.00,,,0.00,,2013-06-12 21:33:00,
2013-06-12 17:40:00,81.0,68.0,29.91,NW,315,1.0,7.0,65,0.00,,,0.00,,2013-06-12 21:40:00,
2013-06-12 17:43:00,84.0,70.0,29.92,NNW,338,0.0,7.0,63,0.00,,,0.00,,2013-06-12 21:43:00,
2013-06-12 17:53:00,84.0,70.0,29.92,NNW,338,0.0,7.0,63,0.00,,,0.00,,2013-06-12 21:53:00,
2013-06-12 18:01:00,81.0,68.0,29.91,NW,315,1.0,7.0,65,0.00,,,0.00,,2013-06-12 22:01:00,
2013-06-12 18:11:00,81.0,68.0,29.91,NW,315,1.0,7.0,65,0.00,,,0.00,,2013-06-12 22:11:00,
2013-06-12 18:22:00,81.0,68.0,29.91,NW,315,1.0,7.0,65,0.00,,,0.00,,2013-06-12 22:22:00,
2013-06-12 18:32:00,81.0,68.0,29.91,NW,315,1.0,7.0,65,0.00,,,0.00,,2013-06-12 22:32:00,
2013-06-12 19:32:00,80.0,69.0,29.89,West,270,0.0,3.0,70,0.00,,,0.00,,2013-06-12 23:32:00,
2013-06-12 19:40:00,78.0,71.0,29.91,West,270,0.0,0.0,78,0.00,,,0.00,,2013-06-12 23:40:00,
2013-06-12 19:42:00,80.0,69.0,29.89,West,270,0.0,3.0,70,0.00,,,0.00,,2013-06-12 23:42:00,
2013-06-12 19:53:00,80.0,69.0,29.89,West,270,0.0,3.0,70,0.00,,,0.00,,2013-06-12 23:53:00,
2013-06-12 20:01:00,78.0,71.0,29.91,West,270,0.0,0.0,78,0.00,,,0.00,,2013-06-13 00:01:00,
2013-06-12 20:12:00,78.0,71.0,29.91,West,270,0.0,0.0,78,0.00,,,0.00,,2013-06-13 00:12:00,
2013-06-12 20:22:00,78.0,71.0,29.91,West,270,0.0,0.0,78,0.00,,,0.00,,2013-06-13 00:22:00,
2013-06-12 20:32:00,78.0,71.0,29.91,West,270,0.0,0.0,78,0.00,,,0.00,,2013-06-13 00:32:00,
2013-06-12 21:01:00,72.0,69.0,29.90,West,270,0.0,0.0,90,0.00,,,0.00,,2013-06-13 01:01:00,
2013-06-12 21:12:00,72.0,69.0,29.90,West,270,0.0,0.0,90,0.00,,,0.00,,2013-06-13 01:12:00,
2013-06-12 21:22:00,72.0,69.0,29.90,West,270,0.0,0.0,90,0.00,,,0.00,,2013-06-13 01:22:00,
2013-06-12 21:32:00,69.0,66.0,29.90,West,270,0.0,0.0,91,0.00,,,0.00,,2013-06-13 01:32:00,
2013-06-12 21:43:00,69.0,66.0,29.90,West,270,0.0,0.0,91,0.00,,,0.00,,2013-06-13 01:43:00,
2013-06-12 21:53:00,69.0,66.0,29.90,West,270,0.0,0.0,91,0.00,,,0.00,,2013-06-13 01:53:00,
2013-06-12 22:02:00,68.0,66.0,29.89,West,270,0.0,0.0,93,0.00,,,0.00,,2013-06-13 02:02:00,
2013-06-12 22:12:00,68.0,66.0,29.89,West,270,0.0,0.0,93,0.00,,,0.00,,2013-06-13 02:12:00,
2013-06-12 22:22:00,68.0,66.0,29.89,West,270,0.0,0.0,93,0.00,,,0.00,,2013-06-13 02:22:00,
2013-06-12 22:33:00,67.0,65.0,29.91,West,270,0.0,0.0,94,0.00,,,0.00,,2013-06-13 02:33:00,
2013-06-12 22:43:00,67.0,65.0,29.91,West,270,0.0,0.0,94,0.00,,,0.00,,2013-06-13 02:43:00,
2013-06-12 22:52:00,67.0,65.0,29.91,West,270,0.0,0.0,94,0.00,,,0.00,,2013-06-13 02:52:00,
2013-06-12 23:02:00,66.0,65.0,29.91,West,270,0.0,0.0,95,0.00,,,0.00,,2013-06-13 03:02:00,
2013-06-12 23:12:00,66.0,65.0,29.91,West,270,0.0,0.0,95,0.00,,,0.00,,2013-06-13 03:12:00,
2013-06-12 23:22:00,66.0,65.0,29.91,West,270,0.0,0.0,95,0.00,,,0.00,,2013-06-13 03:22:00,
2013-06-12 23:33:00,66.0,65.0,29.91,West,270,0.0,0.0,96,0.00,,,0.00,,2013-06-13 03:33:00,
2013-06-12 23:42:00,66.0,65.0,29.91,West,270,0.0,0.0,96,0.00,,,0.00,,2013-06-13 03:42:00,
2013-06-12 23:52:00,66.0,65.0,29.91,West,270,0.0,0.0,96,0.00,,,0.00,,2013-06-13 03:52:00,